sensor_id;sensor_type;location;lat;lon;timestamp;P1;durP1;ratioP1;P2;durP2;ratioP2
35488;SDS011;21602;55.670;37.578;2023-04-01T00:00:52;10.05;;;6.82;;
35488;SDS011;21602;55.670;37.578;2023-04-01T00:03:19;8.05;;;6.47;;
35488;SDS011;21602;55.670;37.578;2023-04-01T00:05:46;8.90;;;6.40;;
35488;SDS011;21602;55.670;37.578;2023-04-01T00:08:12;10.63;;;6.55;;
35488;SDS011;21602;55.670;37.578;2023-04-01T00:10:38;10.70;;;7.80;;
35488;SDS011;21602;55.670;37.578;2023-04-01T00:13:05;11.30;;;7.55;;
35488;SDS011;21602;55.670;37.578;2023-04-01T00:15:32;10.05;;;7.07;;
35488;SDS011;21602;55.670;37.578;2023-04-01T00:17:58;9.15;;;6.75;;
35488;SDS011;21602;55.670;37.578;2023-04-01T00:20:26;8.63;;;6.45;;
35488;SDS011;21602;55.670;37.578;2023-04-01T00:22:52;8.25;;;6.25;;
35488;SDS011;21602;55.670;37.578;2023-04-01T00:25:17;9.07;;;6.50;;
35488;SDS011;21602;55.670;37.578;2023-04-01T00:27:44;9.40;;;6.63;;
35488;SDS011;21602;55.670;37.578;2023-04-01T00:30:10;8.23;;;6.65;;
35488;SDS011;21602;55.670;37.578;2023-04-01T00:32:36;7.38;;;6.57;;
35488;SDS011;21602;55.670;37.578;2023-04-01T00:35:03;9.45;;;6.85;;
35488;SDS011;21602;55.670;37.578;2023-04-01T00:37:29;11.25;;;6.75;;
35488;SDS011;21602;55.670;37.578;2023-04-01T00:39:56;9.00;;;6.95;;
35488;SDS011;21602;55.670;37.578;2023-04-01T00:42:22;9.98;;;6.60;;
35488;SDS011;21602;55.670;37.578;2023-04-01T00:44:52;11.38;;;6.95;;
35488;SDS011;21602;55.670;37.578;2023-04-01T00:47:19;7.72;;;6.05;;
35488;SDS011;21602;55.670;37.578;2023-04-01T00:49:48;10.57;;;7.15;;
35488;SDS011;21602;55.670;37.578;2023-04-01T00:52:23;9.95;;;7.00;;
35488;SDS011;21602;55.670;37.578;2023-04-01T00:54:53;10.23;;;6.47;;
35488;SDS011;21602;55.670;37.578;2023-04-01T00:57:36;10.38;;;6.65;;
35488;SDS011;21602;55.670;37.578;2023-04-01T01:00:06;8.27;;;6.38;;
35488;SDS011;21602;55.670;37.578;2023-04-01T01:02:34;6.88;;;5.32;;
35488;SDS011;21602;55.670;37.578;2023-04-01T01:05:00;8.90;;;6.28;;
35488;SDS011;21602;55.670;37.578;2023-04-01T01:15:41;8.43;;;6.30;;
35488;SDS011;21602;55.670;37.578;2023-04-01T01:37:03;8.98;;;6.75;;
35488;SDS011;21602;55.670;37.578;2023-04-01T01:39:35;8.15;;;6.50;;
35488;SDS011;21602;55.670;37.578;2023-04-01T01:42:04;10.52;;;6.78;;
35488;SDS011;21602;55.670;37.578;2023-04-01T01:44:33;9.45;;;6.80;;
35488;SDS011;21602;55.670;37.578;2023-04-01T01:47:02;9.75;;;6.85;;
35488;SDS011;21602;55.670;37.578;2023-04-01T01:49:28;10.25;;;7.03;;
35488;SDS011;21602;55.670;37.578;2023-04-01T01:51:57;8.32;;;6.72;;
35488;SDS011;21602;55.670;37.578;2023-04-01T01:54:23;10.40;;;7.05;;
35488;SDS011;21602;55.670;37.578;2023-04-01T01:56:51;9.07;;;7.05;;
35488;SDS011;21602;55.670;37.578;2023-04-01T01:59:34;9.25;;;7.05;;
35488;SDS011;21602;55.670;37.578;2023-04-01T02:02:03;9.65;;;7.10;;
35488;SDS011;21602;55.670;37.578;2023-04-01T02:04:34;9.98;;;7.45;;
35488;SDS011;21602;55.670;37.578;2023-04-01T02:07:09;9.80;;;7.32;;
35488;SDS011;21602;55.670;37.578;2023-04-01T02:09:41;8.90;;;7.25;;
35488;SDS011;21602;55.670;37.578;2023-04-01T02:12:09;9.73;;;7.10;;
35488;SDS011;21602;55.670;37.578;2023-04-01T02:17:17;12.65;;;8.23;;
35488;SDS011;21602;55.670;37.578;2023-04-01T02:20:02;9.68;;;7.22;;
35488;SDS011;21602;55.670;37.578;2023-04-01T02:22:34;12.52;;;8.20;;
35488;SDS011;21602;55.670;37.578;2023-04-01T02:25:04;11.63;;;8.45;;
35488;SDS011;21602;55.670;37.578;2023-04-01T02:27:36;10.77;;;8.02;;
35488;SDS011;21602;55.670;37.578;2023-04-01T02:30:03;12.20;;;8.23;;
35488;SDS011;21602;55.670;37.578;2023-04-01T02:32:30;11.38;;;8.57;;
35488;SDS011;21602;55.670;37.578;2023-04-01T02:34:58;14.30;;;9.18;;
35488;SDS011;21602;55.670;37.578;2023-04-01T02:37:28;11.63;;;8.30;;
35488;SDS011;21602;55.670;37.578;2023-04-01T02:39:58;11.88;;;8.43;;
35488;SDS011;21602;55.670;37.578;2023-04-01T02:42:25;10.95;;;7.97;;
35488;SDS011;21602;55.670;37.578;2023-04-01T02:44:51;13.10;;;8.73;;
35488;SDS011;21602;55.670;37.578;2023-04-01T02:47:17;11.77;;;7.70;;
35488;SDS011;21602;55.670;37.578;2023-04-01T02:49:43;9.43;;;7.07;;
35488;SDS011;21602;55.670;37.578;2023-04-01T02:52:09;12.05;;;8.30;;
35488;SDS011;21602;55.670;37.578;2023-04-01T02:54:35;10.63;;;7.88;;
35488;SDS011;21602;55.670;37.578;2023-04-01T02:57:00;9.68;;;6.97;;
35488;SDS011;21602;55.670;37.578;2023-04-01T02:59:28;11.43;;;7.68;;
35488;SDS011;21602;55.670;37.578;2023-04-01T03:01:54;9.23;;;7.13;;
35488;SDS011;21602;55.670;37.578;2023-04-01T03:04:19;11.23;;;8.07;;
35488;SDS011;21602;55.670;37.578;2023-04-01T03:06:45;9.55;;;7.40;;
35488;SDS011;21602;55.670;37.578;2023-04-01T03:09:11;11.90;;;7.50;;
35488;SDS011;21602;55.670;37.578;2023-04-01T03:11:37;10.63;;;7.95;;
35488;SDS011;21602;55.670;37.578;2023-04-01T03:14:02;10.02;;;6.97;;
35488;SDS011;21602;55.670;37.578;2023-04-01T03:16:28;10.80;;;7.32;;
35488;SDS011;21602;55.670;37.578;2023-04-01T03:18:54;9.50;;;7.22;;
35488;SDS011;21602;55.670;37.578;2023-04-01T03:21:22;10.68;;;6.82;;
35488;SDS011;21602;55.670;37.578;2023-04-01T03:23:50;11.02;;;6.75;;
35488;SDS011;21602;55.670;37.578;2023-04-01T03:26:17;9.60;;;6.82;;
35488;SDS011;21602;55.670;37.578;2023-04-01T03:28:43;10.10;;;7.15;;
35488;SDS011;21602;55.670;37.578;2023-04-01T03:31:10;9.70;;;7.30;;
35488;SDS011;21602;55.670;37.578;2023-04-01T03:33:42;9.93;;;7.28;;
35488;SDS011;21602;55.670;37.578;2023-04-01T03:36:08;9.60;;;7.38;;
35488;SDS011;21602;55.670;37.578;2023-04-01T03:38:34;8.88;;;7.13;;
35488;SDS011;21602;55.670;37.578;2023-04-01T03:41:01;9.55;;;7.10;;
35488;SDS011;21602;55.670;37.578;2023-04-01T03:43:28;12.73;;;7.93;;
35488;SDS011;21602;55.670;37.578;2023-04-01T03:45:54;9.98;;;7.32;;
35488;SDS011;21602;55.670;37.578;2023-04-01T03:48:20;10.07;;;6.75;;
35488;SDS011;21602;55.670;37.578;2023-04-01T03:50:46;9.45;;;7.03;;
35488;SDS011;21602;55.670;37.578;2023-04-01T03:53:13;10.60;;;7.65;;
35488;SDS011;21602;55.670;37.578;2023-04-01T03:55:42;10.15;;;7.28;;
35488;SDS011;21602;55.670;37.578;2023-04-01T03:58:08;9.43;;;7.10;;
35488;SDS011;21602;55.670;37.578;2023-04-01T04:00:34;11.10;;;7.25;;
35488;SDS011;21602;55.670;37.578;2023-04-01T04:03:05;9.43;;;7.22;;
35488;SDS011;21602;55.670;37.578;2023-04-01T04:05:34;9.25;;;7.07;;
35488;SDS011;21602;55.670;37.578;2023-04-01T04:08:01;9.32;;;7.03;;
35488;SDS011;21602;55.670;37.578;2023-04-01T04:10:28;10.80;;;6.93;;
35488;SDS011;21602;55.670;37.578;2023-04-01T04:12:54;9.77;;;6.70;;
35488;SDS011;21602;55.670;37.578;2023-04-01T04:15:22;8.95;;;6.10;;
35488;SDS011;21602;55.670;37.578;2023-04-01T04:17:48;7.82;;;6.35;;
35488;SDS011;21602;55.670;37.578;2023-04-01T04:20:15;8.43;;;6.05;;
35488;SDS011;21602;55.670;37.578;2023-04-01T04:22:41;6.88;;;5.63;;
35488;SDS011;21602;55.670;37.578;2023-04-01T04:25:08;8.15;;;6.22;;
35488;SDS011;21602;55.670;37.578;2023-04-01T04:27:34;7.95;;;5.85;;
35488;SDS011;21602;55.670;37.578;2023-04-01T04:30:09;7.85;;;6.38;;
35488;SDS011;21602;55.670;37.578;2023-04-01T04:32:36;8.57;;;6.03;;
35488;SDS011;21602;55.670;37.578;2023-04-01T04:35:03;7.22;;;5.47;;
35488;SDS011;21602;55.670;37.578;2023-04-01T04:37:29;7.28;;;5.57;;
35488;SDS011;21602;55.670;37.578;2023-04-01T04:39:55;7.07;;;5.93;;
35488;SDS011;21602;55.670;37.578;2023-04-01T04:42:20;8.27;;;5.95;;
35488;SDS011;21602;55.670;37.578;2023-04-01T04:44:47;8.48;;;5.95;;
35488;SDS011;21602;55.670;37.578;2023-04-01T04:47:13;8.45;;;6.22;;
35488;SDS011;21602;55.670;37.578;2023-04-01T04:49:39;7.95;;;5.72;;
35488;SDS011;21602;55.670;37.578;2023-04-01T04:52:08;24.00;;;12.32;;
35488;SDS011;21602;55.670;37.578;2023-04-01T04:54:35;8.68;;;6.68;;
35488;SDS011;21602;55.670;37.578;2023-04-01T04:57:02;6.90;;;5.18;;
35488;SDS011;21602;55.670;37.578;2023-04-01T04:59:32;7.40;;;5.47;;
35488;SDS011;21602;55.670;37.578;2023-04-01T05:02:33;11.32;;;7.47;;
35488;SDS011;21602;55.670;37.578;2023-04-01T05:05:00;7.43;;;6.00;;
35488;SDS011;21602;55.670;37.578;2023-04-01T05:07:29;8.82;;;6.18;;
35488;SDS011;21602;55.670;37.578;2023-04-01T05:10:50;6.82;;;5.22;;
35488;SDS011;21602;55.670;37.578;2023-04-01T05:14:18;8.07;;;6.00;;
35488;SDS011;21602;55.670;37.578;2023-04-01T05:17:21;7.93;;;5.93;;
35488;SDS011;21602;55.670;37.578;2023-04-01T05:23:45;6.78;;;5.55;;
35488;SDS011;21602;55.670;37.578;2023-04-01T05:26:12;7.53;;;5.75;;
35488;SDS011;21602;55.670;37.578;2023-04-01T05:28:39;8.95;;;6.43;;
35488;SDS011;21602;55.670;37.578;2023-04-01T05:34:07;10.38;;;6.78;;
35488;SDS011;21602;55.670;37.578;2023-04-01T05:36:34;10.30;;;7.40;;
35488;SDS011;21602;55.670;37.578;2023-04-01T05:39:45;9.05;;;6.35;;
35488;SDS011;21602;55.670;37.578;2023-04-01T05:45:07;10.25;;;6.25;;
35488;SDS011;21602;55.670;37.578;2023-04-01T05:48:30;9.38;;;6.70;;
35488;SDS011;21602;55.670;37.578;2023-04-01T05:54:08;8.48;;;6.43;;
35488;SDS011;21602;55.670;37.578;2023-04-01T05:56:35;9.35;;;7.20;;
35488;SDS011;21602;55.670;37.578;2023-04-01T05:59:28;8.70;;;6.13;;
35488;SDS011;21602;55.670;37.578;2023-04-01T06:02:06;9.48;;;6.93;;
35488;SDS011;21602;55.670;37.578;2023-04-01T06:05:01;10.60;;;6.20;;
35488;SDS011;21602;55.670;37.578;2023-04-01T06:22:50;9.73;;;6.75;;
35488;SDS011;21602;55.670;37.578;2023-04-01T06:48:39;12.43;;;8.15;;
35488;SDS011;21602;55.670;37.578;2023-04-01T06:54:50;16.23;;;8.60;;
35488;SDS011;21602;55.670;37.578;2023-04-01T06:57:49;11.18;;;7.63;;
35488;SDS011;21602;55.670;37.578;2023-04-01T07:00:39;16.25;;;8.55;;
35488;SDS011;21602;55.670;37.578;2023-04-01T07:06:05;14.18;;;8.15;;
35488;SDS011;21602;55.670;37.578;2023-04-01T07:08:43;13.05;;;8.75;;
35488;SDS011;21602;55.670;37.578;2023-04-01T07:11:11;14.45;;;8.73;;
35488;SDS011;21602;55.670;37.578;2023-04-01T07:17:03;14.70;;;9.60;;
35488;SDS011;21602;55.670;37.578;2023-04-01T07:19:52;18.77;;;10.13;;
35488;SDS011;21602;55.670;37.578;2023-04-01T07:22:34;13.00;;;9.77;;
35488;SDS011;21602;55.670;37.578;2023-04-01T07:28:18;14.30;;;9.65;;
35488;SDS011;21602;55.670;37.578;2023-04-01T07:31:29;18.02;;;10.73;;
35488;SDS011;21602;55.670;37.578;2023-04-01T07:34:01;19.10;;;11.15;;
35488;SDS011;21602;55.670;37.578;2023-04-01T07:42:30;16.55;;;10.82;;
35488;SDS011;21602;55.670;37.578;2023-04-01T07:48:08;15.32;;;10.20;;
35488;SDS011;21602;55.670;37.578;2023-04-01T07:53:45;15.55;;;9.20;;
35488;SDS011;21602;55.670;37.578;2023-04-01T07:59:45;20.25;;;10.07;;
35488;SDS011;21602;55.670;37.578;2023-04-01T08:02:53;15.25;;;9.85;;
35488;SDS011;21602;55.670;37.578;2023-04-01T08:05:51;14.30;;;9.50;;
35488;SDS011;21602;55.670;37.578;2023-04-01T08:08:50;13.05;;;9.20;;
35488;SDS011;21602;55.670;37.578;2023-04-01T08:14:52;13.93;;;8.75;;
35488;SDS011;21602;55.670;37.578;2023-04-01T08:17:54;16.65;;;9.20;;
35488;SDS011;21602;55.670;37.578;2023-04-01T08:20:25;13.32;;;9.00;;
35488;SDS011;21602;55.670;37.578;2023-04-01T08:23:17;15.13;;;10.18;;
35488;SDS011;21602;55.670;37.578;2023-04-01T08:28:44;14.30;;;10.32;;
35488;SDS011;21602;55.670;37.578;2023-04-01T08:34:01;14.40;;;9.55;;
35488;SDS011;21602;55.670;37.578;2023-04-01T08:36:41;12.48;;;9.32;;
35488;SDS011;21602;55.670;37.578;2023-04-01T08:39:28;17.38;;;9.68;;
35488;SDS011;21602;55.670;37.578;2023-04-01T08:42:04;15.98;;;9.77;;
35488;SDS011;21602;55.670;37.578;2023-04-01T08:59:56;15.93;;;9.45;;
35488;SDS011;21602;55.670;37.578;2023-04-01T09:18:09;12.38;;;6.97;;
35488;SDS011;21602;55.670;37.578;2023-04-01T09:21:03;15.68;;;8.45;;
35488;SDS011;21602;55.670;37.578;2023-04-01T09:23:47;11.32;;;7.35;;
35488;SDS011;21602;55.670;37.578;2023-04-01T09:27:00;14.48;;;8.52;;
35488;SDS011;21602;55.670;37.578;2023-04-01T09:35:10;11.25;;;6.90;;
35488;SDS011;21602;55.670;37.578;2023-04-01T09:37:59;12.40;;;7.55;;
35488;SDS011;21602;55.670;37.578;2023-04-01T09:55:38;8.55;;;6.38;;
35488;SDS011;21602;55.670;37.578;2023-04-01T10:10:39;8.82;;;6.00;;
35488;SDS011;21602;55.670;37.578;2023-04-01T10:16:15;7.70;;;5.57;;
35488;SDS011;21602;55.670;37.578;2023-04-01T10:24:22;6.93;;;4.72;;
35488;SDS011;21602;55.670;37.578;2023-04-01T10:56:34;11.30;;;3.47;;
35488;SDS011;21602;55.670;37.578;2023-04-01T11:00:16;8.30;;;4.13;;
35488;SDS011;21602;55.670;37.578;2023-04-01T11:17:26;6.85;;;4.22;;
35488;SDS011;21602;55.670;37.578;2023-04-01T11:25:53;8.80;;;3.40;;
35488;SDS011;21602;55.670;37.578;2023-04-01T11:36:48;10.00;;;4.63;;
35488;SDS011;21602;55.670;37.578;2023-04-01T11:43:24;6.38;;;3.35;;
35488;SDS011;21602;55.670;37.578;2023-04-01T11:49:33;10.77;;;3.30;;
35488;SDS011;21602;55.670;37.578;2023-04-01T12:07:07;4.33;;;3.37;;
35488;SDS011;21602;55.670;37.578;2023-04-01T12:12:17;11.32;;;6.05;;
35488;SDS011;21602;55.670;37.578;2023-04-01T12:14:59;6.97;;;3.80;;
35488;SDS011;21602;55.670;37.578;2023-04-01T12:26:00;6.55;;;4.45;;
35488;SDS011;21602;55.670;37.578;2023-04-01T12:55:50;7.38;;;4.65;;
35488;SDS011;21602;55.670;37.578;2023-04-01T13:22:38;12.05;;;6.35;;
35488;SDS011;21602;55.670;37.578;2023-04-01T13:25:39;13.05;;;7.38;;
35488;SDS011;21602;55.670;37.578;2023-04-01T13:28:32;13.32;;;6.20;;
35488;SDS011;21602;55.670;37.578;2023-04-01T13:31:09;8.82;;;5.30;;
35488;SDS011;21602;55.670;37.578;2023-04-01T13:33:47;18.13;;;8.15;;
35488;SDS011;21602;55.670;37.578;2023-04-01T13:47:19;11.13;;;7.15;;
35488;SDS011;21602;55.670;37.578;2023-04-01T13:56:04;12.23;;;6.40;;
35488;SDS011;21602;55.670;37.578;2023-04-01T14:01:49;11.27;;;5.50;;
35488;SDS011;21602;55.670;37.578;2023-04-01T14:08:06;15.50;;;7.13;;
35488;SDS011;21602;55.670;37.578;2023-04-01T14:13:44;9.65;;;6.65;;
35488;SDS011;21602;55.670;37.578;2023-04-01T14:30:55;14.30;;;7.78;;
35488;SDS011;21602;55.670;37.578;2023-04-01T14:33:30;7.47;;;5.13;;
35488;SDS011;21602;55.670;37.578;2023-04-01T14:47:50;10.88;;;6.47;;
35488;SDS011;21602;55.670;37.578;2023-04-01T14:50:27;8.38;;;5.72;;
35488;SDS011;21602;55.670;37.578;2023-04-01T14:52:57;9.73;;;6.30;;
35488;SDS011;21602;55.670;37.578;2023-04-01T15:03:24;9.15;;;7.18;;
35488;SDS011;21602;55.670;37.578;2023-04-01T15:15:02;11.85;;;7.60;;
35488;SDS011;21602;55.670;37.578;2023-04-01T15:17:58;11.43;;;6.82;;
35488;SDS011;21602;55.670;37.578;2023-04-01T15:26:25;8.60;;;6.82;;
35488;SDS011;21602;55.670;37.578;2023-04-01T15:31:50;11.27;;;7.28;;
35488;SDS011;21602;55.670;37.578;2023-04-01T15:34:46;10.23;;;7.45;;
35488;SDS011;21602;55.670;37.578;2023-04-01T15:57:29;10.65;;;7.55;;
35488;SDS011;21602;55.670;37.578;2023-04-01T16:16:49;10.73;;;7.75;;
35488;SDS011;21602;55.670;37.578;2023-04-01T16:19:39;11.48;;;8.05;;
35488;SDS011;21602;55.670;37.578;2023-04-01T16:22:20;9.13;;;6.68;;
35488;SDS011;21602;55.670;37.578;2023-04-01T16:36:51;13.93;;;7.70;;
35488;SDS011;21602;55.670;37.578;2023-04-01T16:42:11;15.90;;;8.53;;
35488;SDS011;21602;55.670;37.578;2023-04-01T16:45:15;11.07;;;7.32;;
35488;SDS011;21602;55.670;37.578;2023-04-01T16:47:50;18.98;;;7.95;;
35488;SDS011;21602;55.670;37.578;2023-04-01T16:50:23;10.77;;;6.97;;
35488;SDS011;21602;55.670;37.578;2023-04-01T16:55:45;10.98;;;7.50;;
35488;SDS011;21602;55.670;37.578;2023-04-01T16:58:20;10.15;;;7.70;;
35488;SDS011;21602;55.670;37.578;2023-04-01T17:00:55;9.05;;;7.43;;
35488;SDS011;21602;55.670;37.578;2023-04-01T17:03:29;11.52;;;7.07;;
35488;SDS011;21602;55.670;37.578;2023-04-01T17:06:08;11.18;;;7.25;;
35488;SDS011;21602;55.670;37.578;2023-04-01T17:11:26;12.57;;;8.10;;
35488;SDS011;21602;55.670;37.578;2023-04-01T17:49:54;11.40;;;7.88;;
35488;SDS011;21602;55.670;37.578;2023-04-01T17:52:39;11.85;;;7.80;;
35488;SDS011;21602;55.670;37.578;2023-04-01T17:58:02;11.18;;;8.30;;
35488;SDS011;21602;55.670;37.578;2023-04-01T18:03:40;14.80;;;7.55;;
35488;SDS011;21602;55.670;37.578;2023-04-01T18:06:17;12.57;;;8.20;;
35488;SDS011;21602;55.670;37.578;2023-04-01T18:09:00;11.18;;;7.88;;
35488;SDS011;21602;55.670;37.578;2023-04-01T18:11:49;11.70;;;7.88;;
35488;SDS011;21602;55.670;37.578;2023-04-01T18:14:25;12.27;;;8.25;;
35488;SDS011;21602;55.670;37.578;2023-04-01T18:17:17;13.85;;;9.15;;
35488;SDS011;21602;55.670;37.578;2023-04-01T18:23:02;13.75;;;8.77;;
35488;SDS011;21602;55.670;37.578;2023-04-01T18:25:44;13.35;;;9.32;;
35488;SDS011;21602;55.670;37.578;2023-04-01T18:31:23;18.40;;;9.05;;
35488;SDS011;21602;55.670;37.578;2023-04-01T18:36:36;12.68;;;9.13;;
35488;SDS011;21602;55.670;37.578;2023-04-01T18:39:09;14.88;;;9.95;;
35488;SDS011;21602;55.670;37.578;2023-04-01T18:51:01;14.00;;;8.98;;
35488;SDS011;21602;55.670;37.578;2023-04-01T18:53:44;12.57;;;8.52;;
35488;SDS011;21602;55.670;37.578;2023-04-01T18:56:14;13.40;;;9.27;;
35488;SDS011;21602;55.670;37.578;2023-04-01T18:59:09;16.27;;;10.18;;
35488;SDS011;21602;55.670;37.578;2023-04-01T19:02:00;13.73;;;9.65;;
35488;SDS011;21602;55.670;37.578;2023-04-01T19:07:34;14.32;;;9.38;;
35488;SDS011;21602;55.670;37.578;2023-04-01T19:10:23;14.43;;;9.82;;
35488;SDS011;21602;55.670;37.578;2023-04-01T19:22:13;14.20;;;9.65;;
35488;SDS011;21602;55.670;37.578;2023-04-01T19:25:06;13.10;;;9.13;;
35488;SDS011;21602;55.670;37.578;2023-04-01T19:27:37;13.82;;;9.02;;
35488;SDS011;21602;55.670;37.578;2023-04-01T19:30:27;17.30;;;9.60;;
35488;SDS011;21602;55.670;37.578;2023-04-01T19:39:03;13.40;;;9.45;;
35488;SDS011;21602;55.670;37.578;2023-04-01T19:56:18;15.27;;;9.70;;
35488;SDS011;21602;55.670;37.578;2023-04-01T20:01:53;12.90;;;9.45;;
35488;SDS011;21602;55.670;37.578;2023-04-01T20:09:42;11.77;;;9.02;;
35488;SDS011;21602;55.670;37.578;2023-04-01T20:14:57;15.05;;;10.13;;
35488;SDS011;21602;55.670;37.578;2023-04-01T20:58:31;13.40;;;9.20;;
35488;SDS011;21602;55.670;37.578;2023-04-01T21:21:17;15.43;;;10.35;;
35488;SDS011;21602;55.670;37.578;2023-04-01T21:27:06;13.52;;;9.63;;
35488;SDS011;21602;55.670;37.578;2023-04-01T21:34:57;16.98;;;9.93;;
35488;SDS011;21602;55.670;37.578;2023-04-01T21:37:45;15.38;;;10.45;;
35488;SDS011;21602;55.670;37.578;2023-04-01T21:46:10;14.73;;;9.77;;
35488;SDS011;21602;55.670;37.578;2023-04-01T21:48:48;14.90;;;10.15;;
35488;SDS011;21602;55.670;37.578;2023-04-01T22:11:42;17.15;;;10.88;;
35488;SDS011;21602;55.670;37.578;2023-04-01T22:14:16;22.10;;;11.88;;
35488;SDS011;21602;55.670;37.578;2023-04-01T22:16:52;21.40;;;11.60;;
35488;SDS011;21602;55.670;37.578;2023-04-01T22:22:52;19.70;;;11.20;;
35488;SDS011;21602;55.670;37.578;2023-04-01T22:25:43;16.45;;;11.45;;
35488;SDS011;21602;55.670;37.578;2023-04-01T22:28:24;19.27;;;11.40;;
35488;SDS011;21602;55.670;37.578;2023-04-01T22:31:00;17.57;;;10.53;;
35488;SDS011;21602;55.670;37.578;2023-04-01T22:33:30;17.02;;;10.60;;
35488;SDS011;21602;55.670;37.578;2023-04-01T22:43:59;19.30;;;12.13;;
35488;SDS011;21602;55.670;37.578;2023-04-01T22:49:29;15.80;;;10.82;;
35488;SDS011;21602;55.670;37.578;2023-04-01T22:55:00;23.02;;;13.18;;
35488;SDS011;21602;55.670;37.578;2023-04-01T23:00:48;19.92;;;12.65;;
35488;SDS011;21602;55.670;37.578;2023-04-01T23:03:34;19.23;;;12.20;;
35488;SDS011;21602;55.670;37.578;2023-04-01T23:06:05;18.95;;;12.40;;
35488;SDS011;21602;55.670;37.578;2023-04-01T23:11:12;20.38;;;13.63;;
35488;SDS011;21602;55.670;37.578;2023-04-01T23:13:50;20.08;;;13.23;;
35488;SDS011;21602;55.670;37.578;2023-04-01T23:16:30;24.58;;;14.20;;
35488;SDS011;21602;55.670;37.578;2023-04-01T23:19:10;20.48;;;13.60;;
35488;SDS011;21602;55.670;37.578;2023-04-01T23:24:32;20.30;;;13.48;;
35488;SDS011;21602;55.670;37.578;2023-04-01T23:29:42;20.63;;;12.85;;
35488;SDS011;21602;55.670;37.578;2023-04-01T23:32:15;24.33;;;14.20;;
35488;SDS011;21602;55.670;37.578;2023-04-01T23:34:50;26.42;;;14.32;;
35488;SDS011;21602;55.670;37.578;2023-04-01T23:37:19;24.77;;;14.93;;
35488;SDS011;21602;55.670;37.578;2023-04-01T23:39:49;23.60;;;14.45;;
35488;SDS011;21602;55.670;37.578;2023-04-01T23:44:57;29.63;;;16.02;;
35488;SDS011;21602;55.670;37.578;2023-04-01T23:47:36;26.10;;;15.73;;
35488;SDS011;21602;55.670;37.578;2023-04-01T23:50:06;24.88;;;14.25;;
35488;SDS011;21602;55.670;37.578;2023-04-01T23:52:45;19.90;;;13.38;;
35488;SDS011;21602;55.670;37.578;2023-04-01T23:57:42;26.17;;;15.40;;
